sensor_id;sensor_type;location;lat;lon;timestamp;P1;durP1;ratioP1;P2;durP2;ratioP2
29776;SDS011;16677;52.224;7.484;2023-03-30T00:00:14;9.23;;;6.72;;
29776;SDS011;16677;52.224;7.484;2023-03-30T00:02:49;6.90;;;6.20;;
29776;SDS011;16677;52.224;7.484;2023-03-30T00:05:24;7.22;;;6.07;;
29776;SDS011;16677;52.224;7.484;2023-03-30T00:08:01;6.80;;;5.75;;
29776;SDS011;16677;52.224;7.484;2023-03-30T00:10:31;7.15;;;5.70;;
29776;SDS011;16677;52.224;7.484;2023-03-30T00:13:10;7.73;;;5.83;;
29776;SDS011;16677;52.224;7.484;2023-03-30T00:15:39;8.90;;;5.68;;
29776;SDS011;16677;52.224;7.484;2023-03-30T00:18:07;6.95;;;5.40;;
29776;SDS011;16677;52.224;7.484;2023-03-30T00:20:34;6.47;;;5.40;;
29776;SDS011;16677;52.224;7.484;2023-03-30T00:23:03;8.83;;;5.77;;
29776;SDS011;16677;52.224;7.484;2023-03-30T00:25:30;6.43;;;5.43;;
29776;SDS011;16677;52.224;7.484;2023-03-30T00:28:11;6.88;;;5.10;;
29776;SDS011;16677;52.224;7.484;2023-03-30T00:30:42;7.13;;;5.20;;
29776;SDS011;16677;52.224;7.484;2023-03-30T00:33:09;7.55;;;5.88;;
29776;SDS011;16677;52.224;7.484;2023-03-30T00:35:36;7.90;;;5.70;;
29776;SDS011;16677;52.224;7.484;2023-03-30T00:38:07;5.95;;;5.18;;
29776;SDS011;16677;52.224;7.484;2023-03-30T00:40:34;7.50;;;5.30;;
29776;SDS011;16677;52.224;7.484;2023-03-30T00:43:03;7.95;;;5.30;;
29776;SDS011;16677;52.224;7.484;2023-03-30T00:45:36;7.30;;;5.15;;
29776;SDS011;16677;52.224;7.484;2023-03-30T00:48:07;6.68;;;5.40;;
29776;SDS011;16677;52.224;7.484;2023-03-30T00:50:49;9.02;;;5.40;;
29776;SDS011;16677;52.224;7.484;2023-03-30T00:53:33;7.10;;;5.38;;
29776;SDS011;16677;52.224;7.484;2023-03-30T00:56:05;8.13;;;5.20;;
29776;SDS011;16677;52.224;7.484;2023-03-30T00:58:42;5.85;;;5.22;;
29776;SDS011;16677;52.224;7.484;2023-03-30T01:01:14;7.03;;;5.20;;
29776;SDS011;16677;52.224;7.484;2023-03-30T01:03:51;6.78;;;5.20;;
29776;SDS011;16677;52.224;7.484;2023-03-30T01:06:19;6.43;;;5.47;;
29776;SDS011;16677;52.224;7.484;2023-03-30T01:08:51;5.80;;;5.15;;
29776;SDS011;16677;52.224;7.484;2023-03-30T01:11:21;6.30;;;5.30;;
29776;SDS011;16677;52.224;7.484;2023-03-30T01:13:49;6.20;;;5.28;;
29776;SDS011;16677;52.224;7.484;2023-03-30T01:16:33;9.20;;;5.53;;
29776;SDS011;16677;52.224;7.484;2023-03-30T01:29:22;6.32;;;4.97;;
29776;SDS011;16677;52.224;7.484;2023-03-30T01:35:06;7.07;;;5.35;;
29776;SDS011;16677;52.224;7.484;2023-03-30T01:43:45;7.03;;;5.15;;
29776;SDS011;16677;52.224;7.484;2023-03-30T01:46:30;6.67;;;5.43;;
29776;SDS011;16677;52.224;7.484;2023-03-30T01:49:10;7.18;;;5.22;;
29776;SDS011;16677;52.224;7.484;2023-03-30T01:52:12;6.15;;;4.97;;
29776;SDS011;16677;52.224;7.484;2023-03-30T01:58:22;6.82;;;4.63;;
29776;SDS011;16677;52.224;7.484;2023-03-30T02:01:04;6.35;;;4.60;;
29776;SDS011;16677;52.224;7.484;2023-03-30T02:03:40;6.15;;;4.32;;
29776;SDS011;16677;52.224;7.484;2023-03-30T02:06:14;6.05;;;4.38;;
29776;SDS011;16677;52.224;7.484;2023-03-30T02:08:58;5.85;;;3.67;;
29776;SDS011;16677;52.224;7.484;2023-03-30T02:11:28;5.80;;;3.78;;
29776;SDS011;16677;52.224;7.484;2023-03-30T02:13:59;6.90;;;3.65;;
29776;SDS011;16677;52.224;7.484;2023-03-30T02:16:34;7.63;;;4.10;;
29776;SDS011;16677;52.224;7.484;2023-03-30T02:19:13;7.25;;;3.85;;
29776;SDS011;16677;52.224;7.484;2023-03-30T02:21:44;8.27;;;4.30;;
29776;SDS011;16677;52.224;7.484;2023-03-30T02:24:21;7.10;;;4.00;;
29776;SDS011;16677;52.224;7.484;2023-03-30T02:26:59;5.47;;;3.60;;
29776;SDS011;16677;52.224;7.484;2023-03-30T02:29:27;5.85;;;3.40;;
29776;SDS011;16677;52.224;7.484;2023-03-30T02:32:02;6.87;;;3.50;;
29776;SDS011;16677;52.224;7.484;2023-03-30T02:34:44;6.28;;;3.20;;
29776;SDS011;16677;52.224;7.484;2023-03-30T02:44:20;7.50;;;2.92;;
29776;SDS011;16677;52.224;7.484;2023-03-30T02:47:30;6.47;;;2.88;;
29776;SDS011;16677;52.224;7.484;2023-03-30T02:56:08;6.27;;;2.97;;
29776;SDS011;16677;52.224;7.484;2023-03-30T02:59:25;6.38;;;3.22;;
29776;SDS011;16677;52.224;7.484;2023-03-30T03:02:18;4.97;;;3.00;;
29776;SDS011;16677;52.224;7.484;2023-03-30T03:04:53;6.75;;;3.10;;
29776;SDS011;16677;52.224;7.484;2023-03-30T03:07:22;7.03;;;3.05;;
29776;SDS011;16677;52.224;7.484;2023-03-30T03:09:55;4.85;;;2.85;;
29776;SDS011;16677;52.224;7.484;2023-03-30T03:12:22;5.68;;;3.33;;
29776;SDS011;16677;52.224;7.484;2023-03-30T03:14:51;7.63;;;3.30;;
29776;SDS011;16677;52.224;7.484;2023-03-30T03:17:19;4.70;;;3.20;;
29776;SDS011;16677;52.224;7.484;2023-03-30T03:19:48;7.50;;;3.38;;
29776;SDS011;16677;52.224;7.484;2023-03-30T03:22:17;5.47;;;3.33;;
29776;SDS011;16677;52.224;7.484;2023-03-30T03:24:44;7.10;;;3.40;;
29776;SDS011;16677;52.224;7.484;2023-03-30T03:27:22;6.53;;;3.30;;
29776;SDS011;16677;52.224;7.484;2023-03-30T03:29:51;5.35;;;3.13;;
29776;SDS011;16677;52.224;7.484;2023-03-30T03:32:21;7.80;;;3.30;;
29776;SDS011;16677;52.224;7.484;2023-03-30T03:34:49;6.63;;;3.40;;
29776;SDS011;16677;52.224;7.484;2023-03-30T03:37:23;5.93;;;3.10;;
29776;SDS011;16677;52.224;7.484;2023-03-30T03:40:00;5.95;;;4.03;;
29776;SDS011;16677;52.224;7.484;2023-03-30T03:42:39;6.67;;;3.60;;
29776;SDS011;16677;52.224;7.484;2023-03-30T03:45:16;9.17;;;3.50;;
29776;SDS011;16677;52.224;7.484;2023-03-30T03:47:50;6.70;;;3.17;;
29776;SDS011;16677;52.224;7.484;2023-03-30T03:50:20;7.75;;;3.03;;
29776;SDS011;16677;52.224;7.484;2023-03-30T03:52:49;7.43;;;3.50;;
29776;SDS011;16677;52.224;7.484;2023-03-30T03:55:18;8.15;;;3.80;;
29776;SDS011;16677;52.224;7.484;2023-03-30T03:57:48;6.78;;;3.53;;
29776;SDS011;16677;52.224;7.484;2023-03-30T04:00:15;5.63;;;3.00;;
29776;SDS011;16677;52.224;7.484;2023-03-30T04:02:51;6.25;;;3.03;;
29776;SDS011;16677;52.224;7.484;2023-03-30T04:05:24;5.30;;;2.80;;
29776;SDS011;16677;52.224;7.484;2023-03-30T04:07:59;7.60;;;2.90;;
29776;SDS011;16677;52.224;7.484;2023-03-30T04:10:28;5.88;;;2.90;;
29776;SDS011;16677;52.224;7.484;2023-03-30T04:13:06;4.72;;;2.35;;
29776;SDS011;16677;52.224;7.484;2023-03-30T04:15:34;5.47;;;3.20;;
29776;SDS011;16677;52.224;7.484;2023-03-30T04:18:02;6.43;;;3.00;;
29776;SDS011;16677;52.224;7.484;2023-03-30T04:20:33;7.03;;;4.63;;
29776;SDS011;16677;52.224;7.484;2023-03-30T04:23:03;7.35;;;5.55;;
29776;SDS011;16677;52.224;7.484;2023-03-30T04:25:52;6.90;;;3.20;;
29776;SDS011;16677;52.224;7.484;2023-03-30T04:28:19;5.63;;;2.63;;
29776;SDS011;16677;52.224;7.484;2023-03-30T04:30:51;5.97;;;2.40;;
29776;SDS011;16677;52.224;7.484;2023-03-30T04:33:34;5.53;;;2.78;;
29776;SDS011;16677;52.224;7.484;2023-03-30T04:36:18;5.55;;;3.00;;
29776;SDS011;16677;52.224;7.484;2023-03-30T04:38:46;8.68;;;4.32;;
29776;SDS011;16677;52.224;7.484;2023-03-30T04:41:27;6.53;;;2.58;;
29776;SDS011;16677;52.224;7.484;2023-03-30T04:44:03;6.57;;;2.70;;
29776;SDS011;16677;52.224;7.484;2023-03-30T04:46:33;6.37;;;2.73;;
29776;SDS011;16677;52.224;7.484;2023-03-30T04:49:02;6.50;;;2.60;;
29776;SDS011;16677;52.224;7.484;2023-03-30T04:51:30;4.70;;;2.70;;
29776;SDS011;16677;52.224;7.484;2023-03-30T04:53:57;5.78;;;2.88;;
29776;SDS011;16677;52.224;7.484;2023-03-30T04:56:24;6.93;;;2.95;;
29776;SDS011;16677;52.224;7.484;2023-03-30T04:58:51;6.00;;;3.00;;
29776;SDS011;16677;52.224;7.484;2023-03-30T05:01:19;6.20;;;2.80;;
29776;SDS011;16677;52.224;7.484;2023-03-30T05:06:38;4.53;;;2.60;;
29776;SDS011;16677;52.224;7.484;2023-03-30T05:09:07;7.50;;;2.75;;
29776;SDS011;16677;52.224;7.484;2023-03-30T05:11:34;6.00;;;2.63;;
29776;SDS011;16677;52.224;7.484;2023-03-30T05:14:01;5.47;;;2.53;;
29776;SDS011;16677;52.224;7.484;2023-03-30T05:16:28;4.90;;;2.60;;
29776;SDS011;16677;52.224;7.484;2023-03-30T05:18:56;5.93;;;2.80;;
29776;SDS011;16677;52.224;7.484;2023-03-30T05:21:23;8.10;;;2.83;;
29776;SDS011;16677;52.224;7.484;2023-03-30T05:23:50;4.65;;;2.45;;
29776;SDS011;16677;52.224;7.484;2023-03-30T05:26:18;6.72;;;2.50;;
29776;SDS011;16677;52.224;7.484;2023-03-30T05:28:45;4.95;;;2.67;;
29776;SDS011;16677;52.224;7.484;2023-03-30T05:31:13;6.18;;;2.70;;
29776;SDS011;16677;52.224;7.484;2023-03-30T05:33:41;6.88;;;2.60;;
29776;SDS011;16677;52.224;7.484;2023-03-30T05:36:09;6.45;;;2.55;;
29776;SDS011;16677;52.224;7.484;2023-03-30T05:38:36;4.90;;;2.67;;
29776;SDS011;16677;52.224;7.484;2023-03-30T05:41:04;5.88;;;2.75;;
29776;SDS011;16677;52.224;7.484;2023-03-30T05:43:32;5.82;;;2.83;;
29776;SDS011;16677;52.224;7.484;2023-03-30T05:45:59;5.05;;;2.72;;
29776;SDS011;16677;52.224;7.484;2023-03-30T05:48:28;4.10;;;2.47;;
29776;SDS011;16677;52.224;7.484;2023-03-30T05:50:56;6.22;;;2.60;;
29776;SDS011;16677;52.224;7.484;2023-03-30T05:53:26;4.75;;;2.55;;
29776;SDS011;16677;52.224;7.484;2023-03-30T05:55:54;5.80;;;2.70;;
29776;SDS011;16677;52.224;7.484;2023-03-30T05:58:21;5.60;;;2.50;;
29776;SDS011;16677;52.224;7.484;2023-03-30T06:00:48;5.93;;;2.70;;
29776;SDS011;16677;52.224;7.484;2023-03-30T06:03:15;6.05;;;2.70;;
29776;SDS011;16677;52.224;7.484;2023-03-30T06:05:43;5.20;;;2.90;;
29776;SDS011;16677;52.224;7.484;2023-03-30T06:08:10;5.40;;;2.50;;
29776;SDS011;16677;52.224;7.484;2023-03-30T06:10:38;5.07;;;2.50;;
29776;SDS011;16677;52.224;7.484;2023-03-30T06:13:06;6.28;;;2.60;;
29776;SDS011;16677;52.224;7.484;2023-03-30T06:15:33;4.40;;;2.50;;
29776;SDS011;16677;52.224;7.484;2023-03-30T06:18:00;5.53;;;2.58;;
29776;SDS011;16677;52.224;7.484;2023-03-30T06:20:29;4.70;;;2.53;;
29776;SDS011;16677;52.224;7.484;2023-03-30T06:22:56;7.47;;;2.60;;
29776;SDS011;16677;52.224;7.484;2023-03-30T06:25:23;4.30;;;2.27;;
29776;SDS011;16677;52.224;7.484;2023-03-30T06:27:50;5.50;;;2.53;;
